sensor_id;sensor_type;location;lat;lon;timestamp;pressure;altitude;pressure_sealevel;temperature;humidity
35918;BME280;22011;59.912;30.300;2022-10-18T00:02:00;101405.16;;;11.31;72.90
35918;BME280;22011;59.912;30.300;2022-10-18T00:04:28;101406.22;;;11.38;71.25
35918;BME280;22011;59.912;30.300;2022-10-18T00:06:55;101408.59;;;11.41;71.32
35918;BME280;22011;59.912;30.300;2022-10-18T00:09:23;101398.59;;;11.43;71.74
35918;BME280;22011;59.912;30.300;2022-10-18T00:11:52;101389.06;;;11.41;72.04
35918;BME280;22011;59.912;30.300;2022-10-18T00:14:21;101397.06;;;11.41;71.71
35918;BME280;22011;59.912;30.300;2022-10-18T00:16:49;101389.91;;;11.41;71.69
35918;BME280;22011;59.912;30.300;2022-10-18T00:19:16;101386.56;;;11.39;71.72
35918;BME280;22011;59.912;30.300;2022-10-18T00:21:44;101385.19;;;11.35;71.82
35918;BME280;22011;59.912;30.300;2022-10-18T00:24:11;101386.50;;;11.31;72.40
35918;BME280;22011;59.912;30.300;2022-10-18T00:26:39;101378.50;;;11.31;72.10
35918;BME280;22011;59.912;30.300;2022-10-18T00:29:06;101370.34;;;11.33;72.29
35918;BME280;22011;59.912;30.300;2022-10-18T00:31:36;101378.19;;;11.34;72.38
35918;BME280;22011;59.912;30.300;2022-10-18T00:34:05;101370.00;;;11.62;72.58
35918;BME280;22011;59.912;30.300;2022-10-18T00:36:33;101376.50;;;11.33;72.19
35918;BME280;22011;59.912;30.300;2022-10-18T00:39:03;101375.81;;;11.31;72.28
35918;BME280;22011;59.912;30.300;2022-10-18T00:41:32;101367.13;;;11.29;72.30
35918;BME280;22011;59.912;30.300;2022-10-18T00:44:03;101370.28;;;11.25;72.10
35918;BME280;22011;59.912;30.300;2022-10-18T00:46:33;101370.13;;;11.26;72.66
35918;BME280;22011;59.912;30.300;2022-10-18T00:49:10;101368.19;;;11.36;72.38
35918;BME280;22011;59.912;30.300;2022-10-18T00:51:43;101352.13;;;11.28;72.36
35918;BME280;22011;59.912;30.300;2022-10-18T00:54:11;101349.03;;;11.15;71.94
35918;BME280;22011;59.912;30.300;2022-10-18T00:56:39;101347.50;;;11.12;72.57
35918;BME280;22011;59.912;30.300;2022-10-18T00:59:09;101341.72;;;11.43;72.90
35918;BME280;22011;59.912;30.300;2022-10-18T01:01:37;101343.31;;;11.10;71.55
35918;BME280;22011;59.912;30.300;2022-10-18T01:04:06;101338.03;;;11.18;71.73
35918;BME280;22011;59.912;30.300;2022-10-18T01:06:39;101332.25;;;11.23;72.16
35918;BME280;22011;59.912;30.300;2022-10-18T01:09:16;101327.06;;;11.21;72.02
35918;BME280;22011;59.912;30.300;2022-10-18T01:12:02;101307.16;;;11.33;72.15
35918;BME280;22011;59.912;30.300;2022-10-18T01:14:38;101318.38;;;11.19;72.81
35918;BME280;22011;59.912;30.300;2022-10-18T01:17:12;101318.53;;;11.18;72.30
35918;BME280;22011;59.912;30.300;2022-10-18T01:19:59;101298.94;;;11.27;72.88
35918;BME280;22011;59.912;30.300;2022-10-18T01:22:32;101306.19;;;11.17;72.61
35918;BME280;22011;59.912;30.300;2022-10-18T01:25:15;101303.06;;;11.21;73.26
35918;BME280;22011;59.912;30.300;2022-10-18T01:27:54;101296.38;;;11.17;72.89
35918;BME280;22011;59.912;30.300;2022-10-18T01:30:35;101295.53;;;11.17;73.11
35918;BME280;22011;59.912;30.300;2022-10-18T01:33:09;101290.91;;;11.01;73.18
35918;BME280;22011;59.912;30.300;2022-10-18T01:35:42;101296.16;;;10.93;74.01
35918;BME280;22011;59.912;30.300;2022-10-18T01:38:14;101290.91;;;11.01;73.74
35918;BME280;22011;59.912;30.300;2022-10-18T01:40:46;101290.59;;;11.04;73.25
35918;BME280;22011;59.912;30.300;2022-10-18T01:43:16;101281.44;;;11.06;73.19
35918;BME280;22011;59.912;30.300;2022-10-18T01:45:46;101278.63;;;11.08;73.22
35918;BME280;22011;59.912;30.300;2022-10-18T01:48:14;101266.13;;;11.08;73.23
35918;BME280;22011;59.912;30.300;2022-10-18T01:50:42;101264.94;;;11.03;73.46
35918;BME280;22011;59.912;30.300;2022-10-18T01:53:25;101263.69;;;11.15;73.80
35918;BME280;22011;59.912;30.300;2022-10-18T01:56:03;101257.34;;;11.16;73.38
35918;BME280;22011;59.912;30.300;2022-10-18T01:58:39;101263.22;;;11.20;72.46
35918;BME280;22011;59.912;30.300;2022-10-18T02:01:18;101245.41;;;11.28;72.76
35918;BME280;22011;59.912;30.300;2022-10-18T02:03:54;101247.25;;;11.28;72.19
35918;BME280;22011;59.912;30.300;2022-10-18T02:06:27;101235.78;;;11.35;72.50
35918;BME280;22011;59.912;30.300;2022-10-18T02:08:58;101233.91;;;11.28;72.54
35918;BME280;22011;59.912;30.300;2022-10-18T02:11:29;101234.53;;;11.22;71.47
35918;BME280;22011;59.912;30.300;2022-10-18T02:14:01;101237.25;;;11.30;71.66
35918;BME280;22011;59.912;30.300;2022-10-18T02:16:36;101230.81;;;11.40;71.50
35918;BME280;22011;59.912;30.300;2022-10-18T02:19:09;101228.97;;;11.41;71.59
35918;BME280;22011;59.912;30.300;2022-10-18T02:21:39;101223.97;;;11.38;71.96
35918;BME280;22011;59.912;30.300;2022-10-18T02:24:10;101219.28;;;11.32;71.83
35918;BME280;22011;59.912;30.300;2022-10-18T02:26:39;101207.56;;;11.25;72.17
35918;BME280;22011;59.912;30.300;2022-10-18T02:29:07;101202.84;;;11.19;72.01
35918;BME280;22011;59.912;30.300;2022-10-18T02:31:38;101203.53;;;11.21;72.81
35918;BME280;22011;59.912;30.300;2022-10-18T02:34:14;101201.19;;;11.18;72.86
35918;BME280;22011;59.912;30.300;2022-10-18T02:36:46;101185.50;;;11.14;72.59
35918;BME280;22011;59.912;30.300;2022-10-18T02:39:17;101182.84;;;11.14;73.11
35918;BME280;22011;59.912;30.300;2022-10-18T02:41:47;101183.09;;;11.03;72.60
35918;BME280;22011;59.912;30.300;2022-10-18T02:44:14;101183.25;;;11.02;72.77
35918;BME280;22011;59.912;30.300;2022-10-18T02:46:44;101171.28;;;11.06;73.82
35918;BME280;22011;59.912;30.300;2022-10-18T02:49:12;101168.25;;;11.01;73.18
35918;BME280;22011;59.912;30.300;2022-10-18T02:51:39;101156.69;;;10.92;73.83
35918;BME280;22011;59.912;30.300;2022-10-18T02:54:07;101143.16;;;10.86;73.79
35918;BME280;22011;59.912;30.300;2022-10-18T02:56:34;101142.34;;;10.85;73.90
35918;BME280;22011;59.912;30.300;2022-10-18T02:59:02;101141.34;;;10.86;74.32
35918;BME280;22011;59.912;30.300;2022-10-18T03:01:32;101139.50;;;10.87;74.25
35918;BME280;22011;59.912;30.300;2022-10-18T03:04:03;101136.53;;;10.90;74.80
35918;BME280;22011;59.912;30.300;2022-10-18T03:06:31;101140.03;;;10.90;73.97
35918;BME280;22011;59.912;30.300;2022-10-18T03:09:00;101134.38;;;10.93;74.37
35918;BME280;22011;59.912;30.300;2022-10-18T03:11:28;101125.19;;;10.88;74.00
35918;BME280;22011;59.912;30.300;2022-10-18T03:13:55;101127.84;;;10.88;73.86
35918;BME280;22011;59.912;30.300;2022-10-18T03:16:23;101121.69;;;10.87;73.85
35918;BME280;22011;59.912;30.300;2022-10-18T03:18:50;101112.03;;;10.86;73.79
35918;BME280;22011;59.912;30.300;2022-10-18T03:21:19;101112.69;;;10.88;74.43
35918;BME280;22011;59.912;30.300;2022-10-18T03:23:47;101101.50;;;10.85;74.52
35918;BME280;22011;59.912;30.300;2022-10-18T03:26:14;101093.50;;;10.85;74.21
35918;BME280;22011;59.912;30.300;2022-10-18T03:28:42;101088.19;;;10.85;74.69
35918;BME280;22011;59.912;30.300;2022-10-18T03:31:09;101082.19;;;10.82;74.65
35918;BME280;22011;59.912;30.300;2022-10-18T03:33:37;101080.81;;;10.78;75.02
35918;BME280;22011;59.912;30.300;2022-10-18T03:36:05;101081.81;;;10.77;75.43
35918;BME280;22011;59.912;30.300;2022-10-18T03:38:33;101080.66;;;10.80;75.60
35918;BME280;22011;59.912;30.300;2022-10-18T03:41:01;101073.34;;;10.82;75.76
35918;BME280;22011;59.912;30.300;2022-10-18T03:43:28;101068.38;;;10.87;75.98
35918;BME280;22011;59.912;30.300;2022-10-18T03:45:56;101063.88;;;10.88;75.23
35918;BME280;22011;59.912;30.300;2022-10-18T03:48:23;101050.88;;;10.85;75.99
35918;BME280;22011;59.912;30.300;2022-10-18T03:50:51;101051.19;;;10.81;75.96
35918;BME280;22011;59.912;30.300;2022-10-18T03:53:18;101048.69;;;10.80;76.78
35918;BME280;22011;59.912;30.300;2022-10-18T03:55:50;101056.88;;;10.87;77.64
35918;BME280;22011;59.912;30.300;2022-10-18T03:58:18;101051.31;;;10.72;77.80
35918;BME280;22011;59.912;30.300;2022-10-18T04:00:48;101046.50;;;10.75;78.07
35918;BME280;22011;59.912;30.300;2022-10-18T04:03:16;101036.97;;;10.73;78.36
35918;BME280;22011;59.912;30.300;2022-10-18T04:05:44;101038.97;;;10.71;78.17
35918;BME280;22011;59.912;30.300;2022-10-18T04:08:12;101033.47;;;10.72;78.81
35918;BME280;22011;59.912;30.300;2022-10-18T04:10:39;101029.00;;;10.73;79.29
35918;BME280;22011;59.912;30.300;2022-10-18T04:13:09;101033.31;;;10.74;78.95
35918;BME280;22011;59.912;30.300;2022-10-18T04:15:36;101024.97;;;10.69;79.14
35918;BME280;22011;59.912;30.300;2022-10-18T04:18:04;101022.97;;;10.71;79.10
35918;BME280;22011;59.912;30.300;2022-10-18T04:20:32;101025.66;;;10.71;79.20
35918;BME280;22011;59.912;30.300;2022-10-18T04:22:59;101033.47;;;10.72;79.24
35918;BME280;22011;59.912;30.300;2022-10-18T04:25:27;101025.50;;;10.72;78.48
35918;BME280;22011;59.912;30.300;2022-10-18T04:27:55;101018.50;;;10.71;78.74
35918;BME280;22011;59.912;30.300;2022-10-18T04:30:24;101015.66;;;10.73;79.10
35918;BME280;22011;59.912;30.300;2022-10-18T04:32:51;101014.66;;;10.74;79.08
35918;BME280;22011;59.912;30.300;2022-10-18T04:35:19;101011.16;;;10.73;78.56
35918;BME280;22011;59.912;30.300;2022-10-18T04:37:49;100999.84;;;10.71;78.96
35918;BME280;22011;59.912;30.300;2022-10-18T04:40:17;101006.50;;;10.75;78.26
35918;BME280;22011;59.912;30.300;2022-10-18T04:42:45;101000.88;;;10.78;78.23
35918;BME280;22011;59.912;30.300;2022-10-18T04:45:13;101004.03;;;10.82;77.87
35918;BME280;22011;59.912;30.300;2022-10-18T04:47:42;101005.56;;;10.85;77.69
35918;BME280;22011;59.912;30.300;2022-10-18T04:50:09;100999.34;;;10.76;77.35
35918;BME280;22011;59.912;30.300;2022-10-18T04:52:37;100986.88;;;10.76;77.42
35918;BME280;22011;59.912;30.300;2022-10-18T04:55:05;100986.53;;;10.79;77.05
35918;BME280;22011;59.912;30.300;2022-10-18T04:57:33;100985.91;;;10.86;77.01
35918;BME280;22011;59.912;30.300;2022-10-18T05:00:00;100985.72;;;10.87;77.22
35918;BME280;22011;59.912;30.300;2022-10-18T05:02:28;100981.25;;;10.88;76.66
35918;BME280;22011;59.912;30.300;2022-10-18T05:04:57;100980.59;;;10.94;76.69
35918;BME280;22011;59.912;30.300;2022-10-18T05:07:24;100976.22;;;10.85;76.04
35918;BME280;22011;59.912;30.300;2022-10-18T05:09:52;100977.75;;;10.87;76.19
35918;BME280;22011;59.912;30.300;2022-10-18T05:12:19;100966.41;;;10.85;75.88
35918;BME280;22011;59.912;30.300;2022-10-18T05:14:47;100969.22;;;10.84;76.24
35918;BME280;22011;59.912;30.300;2022-10-18T05:17:14;100963.91;;;10.84;76.84
35918;BME280;22011;59.912;30.300;2022-10-18T05:19:42;100963.25;;;10.90;76.46
35918;BME280;22011;59.912;30.300;2022-10-18T05:22:11;100965.59;;;10.93;75.39
35918;BME280;22011;59.912;30.300;2022-10-18T05:24:38;100952.91;;;10.87;75.36
35918;BME280;22011;59.912;30.300;2022-10-18T05:27:06;100950.41;;;10.85;75.52
35918;BME280;22011;59.912;30.300;2022-10-18T05:29:35;100949.09;;;10.89;76.45
35918;BME280;22011;59.912;30.300;2022-10-18T05:32:03;100951.59;;;10.91;75.26
35918;BME280;22011;59.912;30.300;2022-10-18T05:34:30;100937.59;;;10.89;76.19
35918;BME280;22011;59.912;30.300;2022-10-18T05:36:58;100941.41;;;10.86;75.39
35918;BME280;22011;59.912;30.300;2022-10-18T05:39:27;100940.59;;;10.94;76.31
35918;BME280;22011;59.912;30.300;2022-10-18T05:41:55;100941.41;;;10.86;75.39
35918;BME280;22011;59.912;30.300;2022-10-18T05:44:23;100938.25;;;10.82;75.05
35918;BME280;22011;59.912;30.300;2022-10-18T05:46:50;100933.72;;;10.75;75.66
35918;BME280;22011;59.912;30.300;2022-10-18T05:49:18;100928.91;;;10.78;75.92
35918;BME280;22011;59.912;30.300;2022-10-18T05:51:46;100933.91;;;10.81;75.19
35918;BME280;22011;59.912;30.300;2022-10-18T05:54:13;100934.41;;;10.85;75.44
35918;BME280;22011;59.912;30.300;2022-10-18T05:56:42;100934.94;;;10.89;76.41
35918;BME280;22011;59.912;30.300;2022-10-18T05:59:10;100934.94;;;10.89;75.73
35918;BME280;22011;59.912;30.300;2022-10-18T06:01:38;100935.59;;;10.91;76.34
35918;BME280;22011;59.912;30.300;2022-10-18T06:04:07;100933.44;;;10.94;76.14
35918;BME280;22011;59.912;30.300;2022-10-18T06:06:36;100934.44;;;10.93;75.08
35918;BME280;22011;59.912;30.300;2022-10-18T06:09:05;100928.09;;;10.94;74.54
35918;BME280;22011;59.912;30.300;2022-10-18T06:11:34;100927.75;;;10.89;74.86
35918;BME280;22011;59.912;30.300;2022-10-18T06:14:04;100913.28;;;10.92;75.52
35918;BME280;22011;59.912;30.300;2022-10-18T06:16:31;100908.91;;;10.82;75.01
35918;BME280;22011;59.912;30.300;2022-10-18T06:18:59;100910.75;;;10.82;75.17
35918;BME280;22011;59.912;30.300;2022-10-18T06:21:26;100904.59;;;10.81;75.76
35918;BME280;22011;59.912;30.300;2022-10-18T06:23:57;100910.78;;;10.90;76.17
35918;BME280;22011;59.912;30.300;2022-10-18T06:26:26;100911.94;;;10.88;76.94
35918;BME280;22011;59.912;30.300;2022-10-18T06:28:53;100914.75;;;10.86;75.41
35918;BME280;22011;59.912;30.300;2022-10-18T06:31:22;100908.94;;;10.91;75.26
35918;BME280;22011;59.912;30.300;2022-10-18T06:33:50;100919.09;;;10.87;75.39
35918;BME280;22011;59.912;30.300;2022-10-18T06:36:19;100924.09;;;10.90;76.01
35918;BME280;22011;59.912;30.300;2022-10-18T06:38:48;100919.75;;;10.89;75.75
35918;BME280;22011;59.912;30.300;2022-10-18T06:41:16;100922.44;;;10.89;75.73
35918;BME280;22011;59.912;30.300;2022-10-18T06:43:47;100923.78;;;10.93;76.38
35918;BME280;22011;59.912;30.300;2022-10-18T06:46:15;100915.59;;;10.87;76.36
35918;BME280;22011;59.912;30.300;2022-10-18T06:48:44;100925.91;;;10.81;76.20
35918;BME280;22011;59.912;30.300;2022-10-18T06:51:12;100928.91;;;10.78;76.53
35918;BME280;22011;59.912;30.300;2022-10-18T06:53:40;100919.91;;;10.79;76.25
35918;BME280;22011;59.912;30.300;2022-10-18T06:56:10;100923.91;;;10.84;76.63
35918;BME280;22011;59.912;30.300;2022-10-18T06:58:38;100926.91;;;10.80;76.43
35918;BME280;22011;59.912;30.300;2022-10-18T07:01:06;100927.75;;;10.81;77.38
35918;BME280;22011;59.912;30.300;2022-10-18T07:03:35;100924.22;;;10.72;77.30
35918;BME280;22011;59.912;30.300;2022-10-18T07:06:05;100936.06;;;10.78;77.84
35918;BME280;22011;59.912;30.300;2022-10-18T07:08:34;100932.41;;;10.79;76.58
35918;BME280;22011;59.912;30.300;2022-10-18T07:11:01;100924.59;;;10.86;76.42
35918;BME280;22011;59.912;30.300;2022-10-18T07:13:30;100923.44;;;10.88;76.30
35918;BME280;22011;59.912;30.300;2022-10-18T07:16:04;100924.94;;;10.91;76.26
35918;BME280;22011;59.912;30.300;2022-10-18T07:18:33;100931.41;;;10.80;77.38
35918;BME280;22011;59.912;30.300;2022-10-18T07:21:01;100927.91;;;10.79;76.20
35918;BME280;22011;59.912;30.300;2022-10-18T07:23:32;100928.75;;;10.80;77.07
35918;BME280;22011;59.912;30.300;2022-10-18T07:26:01;100923.56;;;10.78;76.72
35918;BME280;22011;59.912;30.300;2022-10-18T07:28:29;100928.91;;;10.78;77.86
35918;BME280;22011;59.912;30.300;2022-10-18T07:30:57;100934.91;;;10.80;78.52
35918;BME280;22011;59.912;30.300;2022-10-18T07:33:30;100928.75;;;10.80;78.20
35918;BME280;22011;59.912;30.300;2022-10-18T07:36:00;100930.91;;;10.85;76.71
35918;BME280;22011;59.912;30.300;2022-10-18T07:38:28;100938.44;;;10.89;76.42
35918;BME280;22011;59.912;30.300;2022-10-18T07:40:57;100940.25;;;10.89;76.94
35918;BME280;22011;59.912;30.300;2022-10-18T07:43:25;100937.09;;;10.85;76.10
35918;BME280;22011;59.912;30.300;2022-10-18T07:45:54;100940.91;;;10.82;76.07
35918;BME280;22011;59.912;30.300;2022-10-18T07:48:22;100942.91;;;10.89;76.65
35918;BME280;22011;59.912;30.300;2022-10-18T07:50:50;100947.09;;;10.91;77.18
35918;BME280;22011;59.912;30.300;2022-10-18T07:53:17;100945.09;;;10.85;77.54
35918;BME280;22011;59.912;30.300;2022-10-18T07:55:45;100950.06;;;10.80;77.69
35918;BME280;22011;59.912;30.300;2022-10-18T07:58:14;100949.56;;;10.85;77.26
35918;BME280;22011;59.912;30.300;2022-10-18T08:00:41;100951.56;;;10.82;76.40
35918;BME280;22011;59.912;30.300;2022-10-18T08:03:08;100949.91;;;10.81;76.55
35918;BME280;22011;59.912;30.300;2022-10-18T08:05:36;100955.22;;;10.81;77.48
35918;BME280;22011;59.912;30.300;2022-10-18T08:08:03;100953.88;;;10.77;76.94
35918;BME280;22011;59.912;30.300;2022-10-18T08:10:33;100950.91;;;10.80;78.55
35918;BME280;22011;59.912;30.300;2022-10-18T08:13:00;100946.88;;;10.76;77.72
35918;BME280;22011;59.912;30.300;2022-10-18T08:15:29;100949.91;;;10.81;77.86
35918;BME280;22011;59.912;30.300;2022-10-18T08:17:57;100940.22;;;10.80;78.91
35918;BME280;22011;59.912;30.300;2022-10-18T08:20:24;100950.91;;;10.80;78.91
35918;BME280;22011;59.912;30.300;2022-10-18T08:22:52;100943.03;;;10.71;78.90
35918;BME280;22011;59.912;30.300;2022-10-18T08:25:19;100941.38;;;10.70;79.74
35918;BME280;22011;59.912;30.300;2022-10-18T08:27:47;100943.03;;;10.71;79.45
35918;BME280;22011;59.912;30.300;2022-10-18T08:30:14;100924.53;;;10.69;79.17
35918;BME280;22011;59.912;30.300;2022-10-18T08:32:44;100930.91;;;10.76;78.32
35918;BME280;22011;59.912;30.300;2022-10-18T08:35:11;100932.66;;;10.60;78.40
35918;BME280;22011;59.912;30.300;2022-10-18T08:37:39;100922.19;;;10.66;79.80
35918;BME280;22011;59.912;30.300;2022-10-18T08:40:08;100926.81;;;10.56;79.75
35918;BME280;22011;59.912;30.300;2022-10-18T08:42:46;100925.19;;;10.63;79.71
35918;BME280;22011;59.912;30.300;2022-10-18T08:45:18;100920.16;;;10.52;79.19
35918;BME280;22011;59.912;30.300;2022-10-18T08:47:47;100925.50;;;10.60;80.32
35918;BME280;22011;59.912;30.300;2022-10-18T08:50:20;100927.69;;;10.65;79.77
35918;BME280;22011;59.912;30.300;2022-10-18T08:52:53;100926.34;;;10.61;80.47
35918;BME280;22011;59.912;30.300;2022-10-18T08:55:27;100923.88;;;10.67;79.79
35918;BME280;22011;59.912;30.300;2022-10-18T08:58:01;100924.88;;;10.66;80.59
35918;BME280;22011;59.912;30.300;2022-10-18T09:00:33;100927.38;;;10.68;80.53
35918;BME280;22011;59.912;30.300;2022-10-18T09:03:17;100922.41;;;10.81;79.39
35918;BME280;22011;59.912;30.300;2022-10-18T09:05:50;100920.72;;;10.72;78.87
35918;BME280;22011;59.912;30.300;2022-10-18T09:08:33;100924.09;;;10.82;79.27
35918;BME280;22011;59.912;30.300;2022-10-18T09:11:18;100927.09;;;10.87;79.10
35918;BME280;22011;59.912;30.300;2022-10-18T09:13:58;100926.13;;;10.96;79.29
35918;BME280;22011;59.912;30.300;2022-10-18T09:16:31;100920.16;;;11.19;79.41
35918;BME280;22011;59.912;30.300;2022-10-18T09:19:10;100929.63;;;11.05;76.98
35918;BME280;22011;59.912;30.300;2022-10-18T09:21:50;100926.81;;;11.06;76.15
35918;BME280;22011;59.912;30.300;2022-10-18T09:24:25;100927.28;;;11.02;75.49
35918;BME280;22011;59.912;30.300;2022-10-18T09:26:57;100923.91;;;10.84;75.13
35918;BME280;22011;59.912;30.300;2022-10-18T09:29:38;100930.09;;;10.84;75.59
35918;BME280;22011;59.912;30.300;2022-10-18T09:32:20;100931.59;;;10.87;76.43
35918;BME280;22011;59.912;30.300;2022-10-18T09:34:55;100924.59;;;10.86;77.37
35918;BME280;22011;59.912;30.300;2022-10-18T09:37:24;100927.09;;;10.87;77.58
35918;BME280;22011;59.912;30.300;2022-10-18T09:39:59;100927.63;;;10.99;78.74
35918;BME280;22011;59.912;30.300;2022-10-18T09:42:34;100924.63;;;11.02;77.78
35918;BME280;22011;59.912;30.300;2022-10-18T09:45:07;100921.66;;;11.21;77.12
35918;BME280;22011;59.912;30.300;2022-10-18T09:47:45;100910.66;;;11.24;77.03
35918;BME280;22011;59.912;30.300;2022-10-18T09:50:22;100912.66;;;11.30;76.92
35918;BME280;22011;59.912;30.300;2022-10-18T09:52:58;100918.66;;;11.24;75.66
35918;BME280;22011;59.912;30.300;2022-10-18T09:55:32;100920.81;;;11.21;75.16
35918;BME280;22011;59.912;30.300;2022-10-18T09:58:04;100923.81;;;11.18;75.98
35918;BME280;22011;59.912;30.300;2022-10-18T10:00:34;100920.31;;;11.09;76.04
35918;BME280;22011;59.912;30.300;2022-10-18T10:03:09;100917.81;;;11.07;75.48
35918;BME280;22011;59.912;30.300;2022-10-18T10:05:38;100911.47;;;11.00;75.03
35918;BME280;22011;59.912;30.300;2022-10-18T10:08:06;100911.94;;;10.96;74.78
35918;BME280;22011;59.912;30.300;2022-10-18T10:10:34;100921.91;;;10.86;73.58
35918;BME280;22011;59.912;30.300;2022-10-18T10:13:06;100911.28;;;10.94;73.65
35918;BME280;22011;59.912;30.300;2022-10-18T10:15:44;100905.97;;;11.02;73.67
35918;BME280;22011;59.912;30.300;2022-10-18T10:18:19;100905.13;;;10.93;73.78
35918;BME280;22011;59.912;30.300;2022-10-18T10:20:50;100901.28;;;10.96;74.62
35918;BME280;22011;59.912;30.300;2022-10-18T10:23:20;100904.13;;;11.02;73.90
35918;BME280;22011;59.912;30.300;2022-10-18T10:25:53;100911.13;;;10.95;74.44
35918;BME280;22011;59.912;30.300;2022-10-18T10:28:25;100915.63;;;10.95;74.16
35918;BME280;22011;59.912;30.300;2022-10-18T10:31:16;100912.31;;;11.09;74.90
35918;BME280;22011;59.912;30.300;2022-10-18T10:33:45;100915.28;;;10.90;74.99
35918;BME280;22011;59.912;30.300;2022-10-18T10:36:18;100910.13;;;11.04;73.97
35918;BME280;22011;59.912;30.300;2022-10-18T10:39:01;100910.66;;;11.16;75.15
35918;BME280;22011;59.912;30.300;2022-10-18T10:41:29;100906.44;;;10.97;74.84
35918;BME280;22011;59.912;30.300;2022-10-18T10:43:57;100905.63;;;10.97;73.97
35918;BME280;22011;59.912;30.300;2022-10-18T10:46:33;100906.97;;;11.09;75.20
35918;BME280;22011;59.912;30.300;2022-10-18T10:49:01;100911.78;;;10.97;75.65
35918;BME280;22011;59.912;30.300;2022-10-18T10:51:31;100894.63;;;11.00;75.54
35918;BME280;22011;59.912;30.300;2022-10-18T10:54:01;100893.47;;;11.02;75.46
35918;BME280;22011;59.912;30.300;2022-10-18T10:56:30;100899.31;;;11.06;75.11
35918;BME280;22011;59.912;30.300;2022-10-18T10:59:06;100892.31;;;11.21;75.56
35918;BME280;22011;59.912;30.300;2022-10-18T11:01:36;100889.97;;;11.10;73.42
35918;BME280;22011;59.912;30.300;2022-10-18T11:04:22;100894.31;;;11.35;75.19
35918;BME280;22011;59.912;30.300;2022-10-18T11:07:01;100892.16;;;11.31;75.31
35918;BME280;22011;59.912;30.300;2022-10-18T11:09:50;100894.28;;;11.52;75.03
35918;BME280;22011;59.912;30.300;2022-10-18T11:12:25;100890.16;;;11.25;74.85
35918;BME280;22011;59.912;30.300;2022-10-18T11:15:05;100891.47;;;11.29;76.32
35918;BME280;22011;59.912;30.300;2022-10-18T11:17:41;100882.31;;;11.23;76.10
35918;BME280;22011;59.912;30.300;2022-10-18T11:20:17;100892.81;;;11.25;75.96
35918;BME280;22011;59.912;30.300;2022-10-18T11:22:56;100886.00;;;11.30;75.20
35918;BME280;22011;59.912;30.300;2022-10-18T11:25:33;100890.31;;;11.23;74.61
35918;BME280;22011;59.912;30.300;2022-10-18T11:28:10;100893.31;;;11.28;74.53
35918;BME280;22011;59.912;30.300;2022-10-18T11:30:52;100893.66;;;11.41;74.44
35918;BME280;22011;59.912;30.300;2022-10-18T11:33:30;100890.63;;;11.44;75.42
35918;BME280;22011;59.912;30.300;2022-10-18T11:36:06;100890.31;;;11.39;75.20
35918;BME280;22011;59.912;30.300;2022-10-18T11:38:41;100895.00;;;11.37;75.42
35918;BME280;22011;59.912;30.300;2022-10-18T11:41:23;100895.31;;;11.34;75.90
35918;BME280;22011;59.912;30.300;2022-10-18T11:43:54;100897.66;;;11.13;74.72
35918;BME280;22011;59.912;30.300;2022-10-18T11:46:25;100898.63;;;11.44;75.44
35918;BME280;22011;59.912;30.300;2022-10-18T11:49:18;100885.16;;;11.30;75.18
35918;BME280;22011;59.912;30.300;2022-10-18T11:52:00;100894.16;;;11.21;75.19
35918;BME280;22011;59.912;30.300;2022-10-18T11:54:48;100892.97;;;11.23;76.05
35918;BME280;22011;59.912;30.300;2022-10-18T11:57:38;100900.66;;;11.18;76.75
35918;BME280;22011;59.912;30.300;2022-10-18T12:00:17;100896.97;;;11.11;75.72
35918;BME280;22011;59.912;30.300;2022-10-18T12:02:53;100893.97;;;10.98;75.42
35918;BME280;22011;59.912;30.300;2022-10-18T12:05:28;100897.47;;;10.98;72.98
35918;BME280;22011;59.912;30.300;2022-10-18T12:07:59;100897.47;;;10.98;73.38
35918;BME280;22011;59.912;30.300;2022-10-18T12:10:31;100897.63;;;10.97;73.94
35918;BME280;22011;59.912;30.300;2022-10-18T12:13:01;100890.59;;;10.88;73.24
35918;BME280;22011;59.912;30.300;2022-10-18T12:15:33;100900.63;;;10.94;73.71
35918;BME280;22011;59.912;30.300;2022-10-18T12:18:05;100911.59;;;10.91;74.38
35918;BME280;22011;59.912;30.300;2022-10-18T12:20:35;100904.94;;;10.87;74.07
35918;BME280;22011;59.912;30.300;2022-10-18T12:23:10;100898.28;;;10.91;73.43
35918;BME280;22011;59.912;30.300;2022-10-18T12:25:42;100904.59;;;10.90;73.84
35918;BME280;22011;59.912;30.300;2022-10-18T12:28:16;100904.28;;;10.93;73.95
35918;BME280;22011;59.912;30.300;2022-10-18T12:30:55;100901.28;;;10.88;74.06
35918;BME280;22011;59.912;30.300;2022-10-18T12:33:28;100895.75;;;10.81;73.56
35918;BME280;22011;59.912;30.300;2022-10-18T12:36:11;100901.28;;;10.88;75.41
35918;BME280;22011;59.912;30.300;2022-10-18T12:38:46;100904.56;;;10.73;75.46
35918;BME280;22011;59.912;30.300;2022-10-18T12:41:19;100903.41;;;10.76;76.17
35918;BME280;22011;59.912;30.300;2022-10-18T12:43:51;100903.41;;;10.76;76.79
35918;BME280;22011;59.912;30.300;2022-10-18T12:46:20;100905.41;;;10.74;77.43
35918;BME280;22011;59.912;30.300;2022-10-18T12:49:00;100898.44;;;10.81;77.46
35918;BME280;22011;59.912;30.300;2022-10-18T12:51:28;100894.59;;;10.75;76.51
35918;BME280;22011;59.912;30.300;2022-10-18T12:54:10;100896.94;;;10.95;77.43
35918;BME280;22011;59.912;30.300;2022-10-18T12:56:40;100893.75;;;10.83;77.10
35918;BME280;22011;59.912;30.300;2022-10-18T13:02:27;100896.13;;;10.94;75.65
35918;BME280;22011;59.912;30.300;2022-10-18T13:04:55;100899.59;;;10.87;74.96